sensor_id;sensor_type;location;lat;lon;timestamp;pressure;altitude;pressure_sealevel;temperature;humidity
27712;BME280;2377;51.734;8.950;2024-01-06T00:00:37;96430.44;;;6.35;99.79
27712;BME280;2377;51.734;8.950;2024-01-06T00:03:04;96431.44;;;6.34;100.00
27712;BME280;2377;51.734;8.950;2024-01-06T00:05:31;96421.84;;;6.36;99.72
27712;BME280;2377;51.734;8.950;2024-01-06T00:07:58;96423.72;;;6.41;100.00
27712;BME280;2377;51.734;8.950;2024-01-06T00:10:26;96427.03;;;6.41;100.00
27712;BME280;2377;51.734;8.950;2024-01-06T00:12:53;96432.53;;;6.38;99.81
27712;BME280;2377;51.734;8.950;2024-01-06T00:15:20;96436.06;;;6.37;100.00
27712;BME280;2377;51.734;8.950;2024-01-06T00:17:50;96436.06;;;6.37;100.00
27712;BME280;2377;51.734;8.950;2024-01-06T00:20:17;96434.84;;;6.40;100.00
27712;BME280;2377;51.734;8.950;2024-01-06T00:22:44;96437.16;;;6.41;100.00
27712;BME280;2377;51.734;8.950;2024-01-06T00:25:12;96431.66;;;6.44;100.00
27712;BME280;2377;51.734;8.950;2024-01-06T00:27:40;96438.19;;;6.40;100.00
27712;BME280;2377;51.734;8.950;2024-01-06T00:30:08;96443.25;;;6.40;100.00
27712;BME280;2377;51.734;8.950;2024-01-06T00:32:35;96447.75;;;6.38;100.00
27712;BME280;2377;51.734;8.950;2024-01-06T00:35:02;96444.47;;;6.38;100.00
27712;BME280;2377;51.734;8.950;2024-01-06T00:37:30;96448.75;;;6.37;100.00
27712;BME280;2377;51.734;8.950;2024-01-06T00:39:57;96449.28;;;6.39;100.00
27712;BME280;2377;51.734;8.950;2024-01-06T00:42:24;96455.94;;;6.40;100.00
27712;BME280;2377;51.734;8.950;2024-01-06T00:44:52;96471.03;;;6.35;100.00
27712;BME280;2377;51.734;8.950;2024-01-06T00:47:19;96474.00;;;6.32;100.00
27712;BME280;2377;51.734;8.950;2024-01-06T00:49:49;96481.19;;;6.35;100.00
27712;BME280;2377;51.734;8.950;2024-01-06T00:52:16;96472.13;;;6.27;100.00
27712;BME280;2377;51.734;8.950;2024-01-06T00:54:43;96477.53;;;6.19;100.00
27712;BME280;2377;51.734;8.950;2024-01-06T00:57:11;96476.31;;;6.22;100.00
27712;BME280;2377;51.734;8.950;2024-01-06T00:59:38;96482.25;;;6.16;100.00
27712;BME280;2377;51.734;8.950;2024-01-06T01:02:06;96485.97;;;6.13;100.00
27712;BME280;2377;51.734;8.950;2024-01-06T01:04:33;96478.03;;;6.09;100.00
27712;BME280;2377;51.734;8.950;2024-01-06T01:07:00;96487.63;;;6.07;100.00
27712;BME280;2377;51.734;8.950;2024-01-06T01:09:27;96494.13;;;6.03;100.00
27712;BME280;2377;51.734;8.950;2024-01-06T01:11:54;96490.03;;;6.02;100.00
27712;BME280;2377;51.734;8.950;2024-01-06T01:14:21;96497.09;;;6.00;100.00
27712;BME280;2377;51.734;8.950;2024-01-06T01:16:48;96489.91;;;5.97;100.00
27712;BME280;2377;51.734;8.950;2024-01-06T01:19:17;96500.41;;;6.01;100.00
27712;BME280;2377;51.734;8.950;2024-01-06T01:21:44;96498.06;;;5.99;100.00
27712;BME280;2377;51.734;8.950;2024-01-06T01:24:11;96500.47;;;5.94;100.00
27712;BME280;2377;51.734;8.950;2024-01-06T01:26:38;96505.78;;;6.04;100.00
27712;BME280;2377;51.734;8.950;2024-01-06T01:29:05;96512.31;;;6.00;100.00
27712;BME280;2377;51.734;8.950;2024-01-06T01:31:31;96512.44;;;6.05;100.00
27712;BME280;2377;51.734;8.950;2024-01-06T01:33:58;96515.53;;;6.07;100.00
27712;BME280;2377;51.734;8.950;2024-01-06T01:36:26;96519.47;;;6.03;100.00
27712;BME280;2377;51.734;8.950;2024-01-06T01:38:54;96519.47;;;6.03;100.00
27712;BME280;2377;51.734;8.950;2024-01-06T01:41:21;96507.56;;;6.04;100.00
27712;BME280;2377;51.734;8.950;2024-01-06T01:43:48;96508.13;;;6.06;100.00
27712;BME280;2377;51.734;8.950;2024-01-06T01:46:17;96505.38;;;6.07;100.00
27712;BME280;2377;51.734;8.950;2024-01-06T01:48:45;96511.59;;;6.11;100.00
27712;BME280;2377;51.734;8.950;2024-01-06T01:51:12;96512.00;;;6.08;100.00
27712;BME280;2377;51.734;8.950;2024-01-06T01:53:42;96511.03;;;6.09;100.00
27712;BME280;2377;51.734;8.950;2024-01-06T01:56:09;96521.38;;;6.08;100.00
27712;BME280;2377;51.734;8.950;2024-01-06T01:58:36;96521.72;;;6.11;100.00
27712;BME280;2377;51.734;8.950;2024-01-06T02:01:04;96518.06;;;6.07;100.00
27712;BME280;2377;51.734;8.950;2024-01-06T02:03:31;96521.38;;;6.08;100.00
27712;BME280;2377;51.734;8.950;2024-01-06T02:05:59;96526.31;;;6.03;100.00
27712;BME280;2377;51.734;8.950;2024-01-06T02:08:26;96524.75;;;6.02;100.00
27712;BME280;2377;51.734;8.950;2024-01-06T02:10:55;96525.41;;;5.97;100.00
27712;BME280;2377;51.734;8.950;2024-01-06T02:13:23;96525.41;;;5.97;100.00
27712;BME280;2377;51.734;8.950;2024-01-06T02:15:50;96519.00;;;5.95;100.00
27712;BME280;2377;51.734;8.950;2024-01-06T02:18:18;96525.41;;;5.97;100.00
27712;BME280;2377;51.734;8.950;2024-01-06T02:20:48;96525.84;;;5.94;100.00
27712;BME280;2377;51.734;8.950;2024-01-06T02:23:18;96525.69;;;5.89;100.00
27712;BME280;2377;51.734;8.950;2024-01-06T02:25:45;96534.47;;;5.86;100.00
27712;BME280;2377;51.734;8.950;2024-01-06T02:28:12;96544.84;;;5.85;100.00
27712;BME280;2377;51.734;8.950;2024-01-06T02:30:39;96531.19;;;5.86;100.00
27712;BME280;2377;51.734;8.950;2024-01-06T02:33:06;96533.16;;;5.84;100.00
27712;BME280;2377;51.734;8.950;2024-01-06T02:35:33;96534.91;;;5.83;100.00
27712;BME280;2377;51.734;8.950;2024-01-06T02:38:00;96537.22;;;5.85;100.00
27712;BME280;2377;51.734;8.950;2024-01-06T02:40:29;96542.72;;;5.82;100.00
27712;BME280;2377;51.734;8.950;2024-01-06T02:42:56;96547.50;;;5.90;100.00
27712;BME280;2377;51.734;8.950;2024-01-06T02:45:23;96539.88;;;5.90;100.00
27712;BME280;2377;51.734;8.950;2024-01-06T02:47:50;96547.28;;;5.91;100.00
27712;BME280;2377;51.734;8.950;2024-01-06T02:50:17;96552.75;;;5.95;100.00
27712;BME280;2377;51.734;8.950;2024-01-06T02:52:44;96548.44;;;5.96;100.00
27712;BME280;2377;51.734;8.950;2024-01-06T02:55:12;96560.13;;;5.97;100.00
27712;BME280;2377;51.734;8.950;2024-01-06T02:57:40;96558.59;;;5.96;100.00
27712;BME280;2377;51.734;8.950;2024-01-06T03:00:08;96562.09;;;5.95;100.00
27712;BME280;2377;51.734;8.950;2024-01-06T03:02:36;96562.72;;;5.90;100.00
27712;BME280;2377;51.734;8.950;2024-01-06T03:05:04;96563.72;;;5.89;100.00
27712;BME280;2377;51.734;8.950;2024-01-06T03:07:31;96562.19;;;5.88;100.00
27712;BME280;2377;51.734;8.950;2024-01-06T03:09:58;96560.19;;;5.90;100.00
27712;BME280;2377;51.734;8.950;2024-01-06T03:12:25;96563.16;;;5.87;100.00
27712;BME280;2377;51.734;8.950;2024-01-06T03:14:53;96568.41;;;5.85;100.00
27712;BME280;2377;51.734;8.950;2024-01-06T03:17:21;96575.69;;;5.82;100.00
27712;BME280;2377;51.734;8.950;2024-01-06T03:19:48;96573.16;;;5.82;100.00
27712;BME280;2377;51.734;8.950;2024-01-06T03:22:15;96573.34;;;5.80;100.00
27712;BME280;2377;51.734;8.950;2024-01-06T03:24:42;96574.91;;;5.81;100.00
27712;BME280;2377;51.734;8.950;2024-01-06T03:27:09;96568.09;;;5.82;100.00
27712;BME280;2377;51.734;8.950;2024-01-06T03:29:36;96567.31;;;5.81;100.00
27712;BME280;2377;51.734;8.950;2024-01-06T03:32:06;96569.84;;;5.81;100.00
27712;BME280;2377;51.734;8.950;2024-01-06T03:34:33;96569.84;;;5.81;100.00
27712;BME280;2377;51.734;8.950;2024-01-06T03:37:00;96568.09;;;5.82;100.00
27712;BME280;2377;51.734;8.950;2024-01-06T03:39:28;96569.63;;;5.83;100.00
27712;BME280;2377;51.734;8.950;2024-01-06T03:41:55;96575.69;;;5.82;100.00
27712;BME280;2377;51.734;8.950;2024-01-06T03:44:23;96584.84;;;5.83;100.00
27712;BME280;2377;51.734;8.950;2024-01-06T03:46:51;96586.41;;;5.84;100.00
27712;BME280;2377;51.734;8.950;2024-01-06T03:49:19;96587.53;;;5.88;100.00
27712;BME280;2377;51.734;8.950;2024-01-06T03:51:46;96590.25;;;5.86;100.00
27712;BME280;2377;51.734;8.950;2024-01-06T03:54:13;96588.69;;;5.85;100.00
27712;BME280;2377;51.734;8.950;2024-01-06T03:56:43;96590.06;;;5.88;100.00
27712;BME280;2377;51.734;8.950;2024-01-06T03:59:11;96589.84;;;5.89;100.00
27712;BME280;2377;51.734;8.950;2024-01-06T04:01:38;96591.59;;;5.89;100.00
27712;BME280;2377;51.734;8.950;2024-01-06T04:04:05;96594.47;;;5.92;100.00
27712;BME280;2377;51.734;8.950;2024-01-06T04:06:34;96603.47;;;5.95;100.00
27712;BME280;2377;51.734;8.950;2024-01-06T04:09:01;96598.78;;;5.92;100.00
27712;BME280;2377;51.734;8.950;2024-01-06T04:11:28;96598.00;;;5.91;100.00
27712;BME280;2377;51.734;8.950;2024-01-06T04:13:55;96599.78;;;5.91;100.00
27712;BME280;2377;51.734;8.950;2024-01-06T04:16:22;96604.06;;;5.90;100.00
27712;BME280;2377;51.734;8.950;2024-01-06T04:18:59;96605.81;;;5.90;100.00
27712;BME280;2377;51.734;8.950;2024-01-06T04:21:29;96607.38;;;5.91;100.00
27712;BME280;2377;51.734;8.950;2024-01-06T04:23:57;96615.97;;;5.90;100.00
27712;BME280;2377;51.734;8.950;2024-01-06T04:26:25;96616.75;;;5.90;100.00
27712;BME280;2377;51.734;8.950;2024-01-06T04:28:52;96613.22;;;5.91;100.00
27712;BME280;2377;51.734;8.950;2024-01-06T04:31:19;96611.25;;;5.93;100.00
27712;BME280;2377;51.734;8.950;2024-01-06T04:33:46;96620.63;;;5.93;100.00
27712;BME280;2377;51.734;8.950;2024-01-06T04:36:13;96619.66;;;5.94;100.00
27712;BME280;2377;51.734;8.950;2024-01-06T04:38:40;96621.22;;;5.95;100.00
27712;BME280;2377;51.734;8.950;2024-01-06T04:41:09;96628.09;;;5.88;100.00
27712;BME280;2377;51.734;8.950;2024-01-06T04:43:37;96630.91;;;5.80;100.00
27712;BME280;2377;51.734;8.950;2024-01-06T04:46:04;96634.81;;;5.76;100.00
27712;BME280;2377;51.734;8.950;2024-01-06T04:48:33;96627.09;;;5.70;100.00
27712;BME280;2377;51.734;8.950;2024-01-06T04:51:00;96628.28;;;5.68;100.00
27712;BME280;2377;51.734;8.950;2024-01-06T04:53:29;96636.09;;;5.66;100.00
27712;BME280;2377;51.734;8.950;2024-01-06T04:55:56;96629.06;;;5.68;100.00
27712;BME280;2377;51.734;8.950;2024-01-06T04:58:24;96633.28;;;5.75;100.00
27712;BME280;2377;51.734;8.950;2024-01-06T05:00:51;96634.44;;;5.79;100.00
27712;BME280;2377;51.734;8.950;2024-01-06T05:03:19;96644.34;;;5.80;100.00
27712;BME280;2377;51.734;8.950;2024-01-06T05:05:46;96638.88;;;5.83;100.00
27712;BME280;2377;51.734;8.950;2024-01-06T05:08:13;96641.75;;;5.87;100.00
27712;BME280;2377;51.734;8.950;2024-01-06T05:10:40;96641.53;;;5.88;100.00
27712;BME280;2377;51.734;8.950;2024-01-06T05:13:07;96645.63;;;5.89;100.00
27712;BME280;2377;51.734;8.950;2024-01-06T05:15:36;96646.63;;;5.88;100.00
27712;BME280;2377;51.734;8.950;2024-01-06T05:18:04;96643.50;;;5.86;100.00
27712;BME280;2377;51.734;8.950;2024-01-06T05:20:31;96650.97;;;5.81;100.00
27712;BME280;2377;51.734;8.950;2024-01-06T05:22:58;96651.53;;;5.83;100.00
27712;BME280;2377;51.734;8.950;2024-01-06T05:25:25;96650.75;;;5.83;100.00
27712;BME280;2377;51.734;8.950;2024-01-06T05:27:52;96657.38;;;5.84;100.00
27712;BME280;2377;51.734;8.950;2024-01-06T05:30:19;96654.63;;;5.85;100.00
27712;BME280;2377;51.734;8.950;2024-01-06T05:32:48;96660.63;;;5.91;100.00
27712;BME280;2377;51.734;8.950;2024-01-06T05:35:16;96664.69;;;5.92;100.00
27712;BME280;2377;51.734;8.950;2024-01-06T05:37:43;96676.00;;;5.96;100.00
27712;BME280;2377;51.734;8.950;2024-01-06T05:40:10;96665.66;;;5.98;100.00
27712;BME280;2377;51.734;8.950;2024-01-06T05:42:38;96661.94;;;6.00;100.00
27712;BME280;2377;51.734;8.950;2024-01-06T05:45:06;96678.69;;;6.01;100.00
27712;BME280;2377;51.734;8.950;2024-01-06T05:47:33;96676.38;;;6.00;100.00
27712;BME280;2377;51.734;8.950;2024-01-06T05:50:02;96677.00;;;5.95;100.00
27712;BME280;2377;51.734;8.950;2024-01-06T05:52:29;96682.44;;;5.92;100.00
27712;BME280;2377;51.734;8.950;2024-01-06T05:54:56;96683.22;;;5.92;100.00
27712;BME280;2377;51.734;8.950;2024-01-06T05:57:24;96683.06;;;5.94;100.00
27712;BME280;2377;51.734;8.950;2024-01-06T05:59:51;96694.75;;;5.95;100.00
27712;BME280;2377;51.734;8.950;2024-01-06T06:02:18;96684.97;;;5.92;100.00
27712;BME280;2377;51.734;8.950;2024-01-06T06:04:45;96695.53;;;5.96;100.00
27712;BME280;2377;51.734;8.950;2024-01-06T06:07:13;96698.25;;;5.94;100.00
27712;BME280;2377;51.734;8.950;2024-01-06T06:09:40;96701.56;;;5.95;100.00
27712;BME280;2377;51.734;8.950;2024-01-06T06:12:08;96699.41;;;5.98;100.00
27712;BME280;2377;51.734;8.950;2024-01-06T06:14:35;96701.97;;;5.91;100.00
27712;BME280;2377;51.734;8.950;2024-01-06T06:17:02;96703.50;;;5.92;100.00
27712;BME280;2377;51.734;8.950;2024-01-06T06:19:29;96710.16;;;5.93;100.00
27712;BME280;2377;51.734;8.950;2024-01-06T06:21:56;96705.50;;;5.90;100.00
27712;BME280;2377;51.734;8.950;2024-01-06T06:24:25;96712.88;;;5.92;100.00
27712;BME280;2377;51.734;8.950;2024-01-06T06:26:52;96715.41;;;5.92;100.00
27712;BME280;2377;51.734;8.950;2024-01-06T06:29:19;96717.38;;;5.90;100.00
27712;BME280;2377;51.734;8.950;2024-01-06T06:31:46;96719.16;;;5.89;100.00
27712;BME280;2377;51.734;8.950;2024-01-06T06:34:14;96725.56;;;5.92;100.00
27712;BME280;2377;51.734;8.950;2024-01-06T06:36:41;96720.88;;;5.96;100.00
27712;BME280;2377;51.734;8.950;2024-01-06T06:39:08;96725.72;;;5.97;100.00
27712;BME280;2377;51.734;8.950;2024-01-06T06:41:37;96733.75;;;5.94;100.00
27712;BME280;2377;51.734;8.950;2024-01-06T06:44:04;96739.81;;;5.93;100.00
27712;BME280;2377;51.734;8.950;2024-01-06T06:46:31;96753.69;;;5.90;100.00
27712;BME280;2377;51.734;8.950;2024-01-06T06:48:58;96750.72;;;5.93;100.00
27712;BME280;2377;51.734;8.950;2024-01-06T06:51:25;96751.91;;;5.91;100.00
27712;BME280;2377;51.734;8.950;2024-01-06T06:53:53;96758.19;;;5.88;100.00
27712;BME280;2377;51.734;8.950;2024-01-06T06:56:20;96765.41;;;5.85;100.00
27712;BME280;2377;51.734;8.950;2024-01-06T06:58:48;96761.91;;;5.86;100.00
27712;BME280;2377;51.734;8.950;2024-01-06T07:01:16;96772.06;;;5.86;100.00
27712;BME280;2377;51.734;8.950;2024-01-06T07:03:43;96777.50;;;5.83;100.00
27712;BME280;2377;51.734;8.950;2024-01-06T07:06:12;96779.28;;;5.82;100.00
27712;BME280;2377;51.734;8.950;2024-01-06T07:08:39;96771.69;;;5.82;100.00
27712;BME280;2377;51.734;8.950;2024-01-06T07:11:08;96787.47;;;5.84;100.00
27712;BME280;2377;51.734;8.950;2024-01-06T07:13:37;96787.25;;;5.86;100.00
27712;BME280;2377;51.734;8.950;2024-01-06T07:16:09;96785.69;;;5.85;100.00
27712;BME280;2377;51.734;8.950;2024-01-06T07:18:37;96786.13;;;5.82;100.00
27712;BME280;2377;51.734;8.950;2024-01-06T07:21:05;96789.41;;;5.82;100.00
27712;BME280;2377;51.734;8.950;2024-01-06T07:23:33;96795.84;;;5.85;100.00
27712;BME280;2377;51.734;8.950;2024-01-06T07:26:01;96800.28;;;5.89;100.00
27712;BME280;2377;51.734;8.950;2024-01-06T07:28:29;96795.78;;;5.91;100.00
27712;BME280;2377;51.734;8.950;2024-01-06T07:30:56;96804.75;;;5.94;100.00
27712;BME280;2377;51.734;8.950;2024-01-06T07:33:24;96802.81;;;5.89;100.00
27712;BME280;2377;51.734;8.950;2024-01-06T07:35:51;96809.66;;;5.89;100.00
27712;BME280;2377;51.734;8.950;2024-01-06T07:38:18;96815.72;;;5.88;100.00
27712;BME280;2377;51.734;8.950;2024-01-06T07:40:46;96818.31;;;5.81;100.00
27712;BME280;2377;51.734;8.950;2024-01-06T07:43:13;96817.13;;;5.84;100.00
27712;BME280;2377;51.734;8.950;2024-01-06T07:45:41;96823.38;;;5.81;100.00
27712;BME280;2377;51.734;8.950;2024-01-06T07:48:08;96831.19;;;5.80;100.00
27712;BME280;2377;51.734;8.950;2024-01-06T07:50:36;96838.38;;;5.83;100.00
27712;BME280;2377;51.734;8.950;2024-01-06T07:53:04;96838.94;;;5.85;100.00
27712;BME280;2377;51.734;8.950;2024-01-06T07:55:31;96841.47;;;5.85;100.00
27712;BME280;2377;51.734;8.950;2024-01-06T07:57:58;96846.78;;;5.83;100.00
27712;BME280;2377;51.734;8.950;2024-01-06T08:00:25;96848.34;;;5.78;100.00
27712;BME280;2377;51.734;8.950;2024-01-06T08:02:52;96850.88;;;5.78;100.00
27712;BME280;2377;51.734;8.950;2024-01-06T08:05:19;96851.66;;;5.78;100.00
27712;BME280;2377;51.734;8.950;2024-01-06T08:07:49;96864.13;;;5.80;100.00
27712;BME280;2377;51.734;8.950;2024-01-06T08:10:18;96855.53;;;5.81;100.00
27712;BME280;2377;51.734;8.950;2024-01-06T08:12:46;96861.00;;;5.84;100.00
27712;BME280;2377;51.734;8.950;2024-01-06T08:15:14;96868.41;;;5.86;100.00
27712;BME280;2377;51.734;8.950;2024-01-06T08:17:41;96873.06;;;5.89;100.00
27712;BME280;2377;51.734;8.950;2024-01-06T08:20:09;96875.78;;;5.87;100.00
27712;BME280;2377;51.734;8.950;2024-01-06T08:22:37;96876.59;;;5.88;100.00
27712;BME280;2377;51.734;8.950;2024-01-06T08:25:06;96885.94;;;5.87;100.00
27712;BME280;2377;51.734;8.950;2024-01-06T08:27:34;96882.41;;;5.88;100.00
27712;BME280;2377;51.734;8.950;2024-01-06T08:30:01;96879.66;;;5.90;100.00
27712;BME280;2377;51.734;8.950;2024-01-06T08:32:28;96881.00;;;5.92;100.00
27712;BME280;2377;51.734;8.950;2024-01-06T08:34:55;96891.75;;;5.95;100.00
27712;BME280;2377;51.734;8.950;2024-01-06T08:37:25;96887.06;;;5.91;100.00
27712;BME280;2377;51.734;8.950;2024-01-06T08:39:52;96893.91;;;5.91;100.00
27712;BME280;2377;51.734;8.950;2024-01-06T08:42:21;96900.75;;;5.90;100.00
27712;BME280;2377;51.734;8.950;2024-01-06T08:44:49;96911.66;;;5.91;100.00
27712;BME280;2377;51.734;8.950;2024-01-06T08:47:16;96909.91;;;5.91;100.00
27712;BME280;2377;51.734;8.950;2024-01-06T08:49:43;96911.44;;;5.92;100.00
27712;BME280;2377;51.734;8.950;2024-01-06T08:52:10;96920.63;;;5.93;100.00
27712;BME280;2377;51.734;8.950;2024-01-06T08:54:37;96929.59;;;5.96;100.00
27712;BME280;2377;51.734;8.950;2024-01-06T08:57:04;96936.63;;;5.94;100.00
27712;BME280;2377;51.734;8.950;2024-01-06T08:59:33;96931.72;;;5.92;100.00
27712;BME280;2377;51.734;8.950;2024-01-06T09:02:00;96938.56;;;5.92;100.00
27712;BME280;2377;51.734;8.950;2024-01-06T09:04:28;96942.47;;;5.95;100.00
27712;BME280;2377;51.734;8.950;2024-01-06T09:06:55;96945.03;;;5.88;100.00
27712;BME280;2377;51.734;8.950;2024-01-06T09:09:22;96954.63;;;5.86;100.00
27712;BME280;2377;51.734;8.950;2024-01-06T09:11:49;96955.38;;;5.86;100.00
27712;BME280;2377;51.734;8.950;2024-01-06T09:14:18;96960.03;;;5.89;100.00
27712;BME280;2377;51.734;8.950;2024-01-06T09:16:46;96964.34;;;5.89;100.00
27712;BME280;2377;51.734;8.950;2024-01-06T09:19:13;96968.84;;;5.87;100.00
27712;BME280;2377;51.734;8.950;2024-01-06T09:21:40;96962.78;;;5.88;100.00
27712;BME280;2377;51.734;8.950;2024-01-06T09:24:08;96968.63;;;5.88;100.00
27712;BME280;2377;51.734;8.950;2024-01-06T09:26:35;96970.00;;;5.91;100.00
27712;BME280;2377;51.734;8.950;2024-01-06T09:29:03;96969.75;;;5.92;100.00
27712;BME280;2377;51.734;8.950;2024-01-06T09:31:30;96977.22;;;5.94;100.00
27712;BME280;2377;51.734;8.950;2024-01-06T09:34:01;96979.38;;;5.90;100.00
27712;BME280;2377;51.734;8.950;2024-01-06T09:36:30;96978.78;;;5.88;100.00
27712;BME280;2377;51.734;8.950;2024-01-06T09:38:57;96982.84;;;5.89;100.00
27712;BME280;2377;51.734;8.950;2024-01-06T09:41:25;96989.31;;;5.85;100.00
27712;BME280;2377;51.734;8.950;2024-01-06T09:43:52;96992.44;;;5.81;100.00
27712;BME280;2377;51.734;8.950;2024-01-06T09:46:25;96994.03;;;5.82;100.00
27712;BME280;2377;51.734;8.950;2024-01-06T09:48:54;96997.94;;;5.78;100.00
27712;BME280;2377;51.734;8.950;2024-01-06T09:51:23;97006.88;;;5.80;100.00
27712;BME280;2377;51.734;8.950;2024-01-06T09:53:57;97002.97;;;5.84;100.00
27712;BME280;2377;51.734;8.950;2024-01-06T09:56:26;97004.53;;;5.85;100.00
27712;BME280;2377;51.734;8.950;2024-01-06T09:58:53;97001.22;;;5.85;100.00
27712;BME280;2377;51.734;8.950;2024-01-06T10:01:22;97004.91;;;5.89;100.00
27712;BME280;2377;51.734;8.950;2024-01-06T10:03:49;96999.84;;;5.89;100.00
27712;BME280;2377;51.734;8.950;2024-01-06T10:06:17;97008.47;;;5.81;100.00
27712;BME280;2377;51.734;8.950;2024-01-06T10:08:50;97013.53;;;5.81;100.00
27712;BME280;2377;51.734;8.950;2024-01-06T10:11:18;97005.31;;;5.86;100.00
27712;BME280;2377;51.734;8.950;2024-01-06T10:13:48;97010.78;;;5.83;100.00
27712;BME280;2377;51.734;8.950;2024-01-06T10:16:16;97018.38;;;5.83;100.00
27712;BME280;2377;51.734;8.950;2024-01-06T10:18:44;97024.06;;;5.78;100.00
27712;BME280;2377;51.734;8.950;2024-01-06T10:21:12;97021.75;;;5.77;100.00
27712;BME280;2377;51.734;8.950;2024-01-06T10:23:42;97032.66;;;5.70;100.00
27712;BME280;2377;51.734;8.950;2024-01-06T10:26:14;97034.44;;;5.70;100.00
27712;BME280;2377;51.734;8.950;2024-01-06T10:28:41;97036.19;;;5.69;100.00
27712;BME280;2377;51.734;8.950;2024-01-06T10:31:08;97037.75;;;5.70;100.00
27712;BME280;2377;51.734;8.950;2024-01-06T10:33:36;97036.97;;;5.70;100.00
27712;BME280;2377;51.734;8.950;2024-01-06T10:36:04;97034.63;;;5.68;100.00
27712;BME280;2377;51.734;8.950;2024-01-06T10:38:33;97037.75;;;5.64;100.00
27712;BME280;2377;51.734;8.950;2024-01-06T10:41:03;97044.78;;;5.62;100.00
27712;BME280;2377;51.734;8.950;2024-01-06T10:43:35;97035.81;;;5.59;100.00
27712;BME280;2377;51.734;8.950;2024-01-06T10:46:07;97039.94;;;5.60;100.00
27712;BME280;2377;51.734;8.950;2024-01-06T10:48:38;97031.16;;;5.56;100.00
27712;BME280;2377;51.734;8.950;2024-01-06T10:51:09;97035.63;;;5.54;100.00
27712;BME280;2377;51.734;8.950;2024-01-06T10:53:36;97034.28;;;5.58;100.00
27712;BME280;2377;51.734;8.950;2024-01-06T10:56:05;97043.84;;;5.56;100.00
27712;BME280;2377;51.734;8.950;2024-01-06T10:58:36;97045.59;;;5.49;100.00
27712;BME280;2377;51.734;8.950;2024-01-06T11:01:09;97057.28;;;5.50;100.00
27712;BME280;2377;51.734;8.950;2024-01-06T11:03:37;97057.69;;;5.47;100.00
27712;BME280;2377;51.734;8.950;2024-01-06T11:06:06;97056.53;;;5.43;100.00
27712;BME280;2377;51.734;8.950;2024-01-06T11:08:46;97062.19;;;5.45;100.00
27712;BME280;2377;51.734;8.950;2024-01-06T11:11:16;97061.00;;;5.41;100.00
27712;BME280;2377;51.734;8.950;2024-01-06T11:13:46;97058.09;;;5.44;100.00
27712;BME280;2377;51.734;8.950;2024-01-06T11:16:34;97049.50;;;5.38;100.00
27712;BME280;2377;51.734;8.950;2024-01-06T11:19:01;97054.56;;;5.38;100.00
27712;BME280;2377;51.734;8.950;2024-01-06T11:21:33;97053.22;;;5.42;100.00
27712;BME280;2377;51.734;8.950;2024-01-06T11:24:19;97054.97;;;5.42;100.00
27712;BME280;2377;51.734;8.950;2024-01-06T11:26:51;97047.19;;;5.43;100.00
27712;BME280;2377;51.734;8.950;2024-01-06T11:29:20;97053.97;;;5.43;100.00
27712;BME280;2377;51.734;8.950;2024-01-06T11:32:28;97061.81;;;5.41;100.00
27712;BME280;2377;51.734;8.950;2024-01-06T11:35:05;97065.88;;;5.36;100.00
27712;BME280;2377;51.734;8.950;2024-01-06T11:37:37;97061.63;;;5.36;100.00
27712;BME280;2377;51.734;8.950;2024-01-06T11:40:31;97062.00;;;5.26;100.00
27712;BME280;2377;51.734;8.950;2024-01-06T11:43:02;97064.34;;;5.21;100.00
27712;BME280;2377;51.734;8.950;2024-01-06T11:46:25;97070.41;;;5.20;100.00
27712;BME280;2377;51.734;8.950;2024-01-06T11:48:56;97068.81;;;5.19;100.00
27712;BME280;2377;51.734;8.950;2024-01-06T11:51:23;97064.34;;;5.21;100.00
27712;BME280;2377;51.734;8.950;2024-01-06T11:53:51;97070.78;;;5.17;100.00
27712;BME280;2377;51.734;8.950;2024-01-06T11:56:18;97075.84;;;5.17;100.00
27712;BME280;2377;51.734;8.950;2024-01-06T11:58:48;97069.63;;;5.20;100.00
27712;BME280;2377;51.734;8.950;2024-01-06T12:01:15;97074.69;;;5.20;100.00
27712;BME280;2377;51.734;8.950;2024-01-06T12:03:44;97074.88;;;5.18;100.00
27712;BME280;2377;51.734;8.950;2024-01-06T12:06:11;97068.81;;;5.19;100.00
27712;BME280;2377;51.734;8.950;2024-01-06T12:08:38;97067.09;;;5.20;100.00
27712;BME280;2377;51.734;8.950;2024-01-06T12:11:05;97072.94;;;5.20;100.00
27712;BME280;2377;51.734;8.950;2024-01-06T12:13:33;97066.28;;;5.19;100.00
27712;BME280;2377;51.734;8.950;2024-01-06T12:16:00;97075.66;;;5.19;100.00
27712;BME280;2377;51.734;8.950;2024-01-06T12:18:27;97071.56;;;5.18;100.00
27712;BME280;2377;51.734;8.950;2024-01-06T12:20:56;97069.81;;;5.18;100.00
27712;BME280;2377;51.734;8.950;2024-01-06T12:23:27;97066.69;;;5.16;100.00
27712;BME280;2377;51.734;8.950;2024-01-06T12:25:55;97076.22;;;5.14;100.00
27712;BME280;2377;51.734;8.950;2024-01-06T12:28:22;97074.50;;;5.08;100.00
27712;BME280;2377;51.734;8.950;2024-01-06T12:30:50;97069.03;;;5.11;100.00
27712;BME280;2377;51.734;8.950;2024-01-06T12:33:17;97062.81;;;5.14;100.00
27712;BME280;2377;51.734;8.950;2024-01-06T12:35:44;97060.25;;;5.14;100.00
27712;BME280;2377;51.734;8.950;2024-01-06T12:38:13;97069.22;;;5.16;100.00
27712;BME280;2377;51.734;8.950;2024-01-06T12:40:40;97063.19;;;5.17;100.00
27712;BME280;2377;51.734;8.950;2024-01-06T12:43:07;97064.75;;;5.18;100.00
27712;BME280;2377;51.734;8.950;2024-01-06T12:45:34;97063.97;;;5.18;100.00
27712;BME280;2377;51.734;8.950;2024-01-06T12:48:01;97062.41;;;5.17;100.00
27712;BME280;2377;51.734;8.950;2024-01-06T12:50:28;97065.53;;;5.12;100.00
27712;BME280;2377;51.734;8.950;2024-01-06T12:52:55;97073.53;;;5.16;100.00
27712;BME280;2377;51.734;8.950;2024-01-06T12:55:23;97080.72;;;5.12;100.00
27712;BME280;2377;51.734;8.950;2024-01-06T12:57:50;97081.13;;;5.09;100.00
27712;BME280;2377;51.734;8.950;2024-01-06T13:00:18;97090.47;;;5.02;100.00
27712;BME280;2377;51.734;8.950;2024-01-06T13:02:46;97092.00;;;5.03;100.00
27712;BME280;2377;51.734;8.950;2024-01-06T13:05:13;97094.53;;;5.03;100.00
27712;BME280;2377;51.734;8.950;2024-01-06T13:07:40;97096.50;;;5.01;100.00
27712;BME280;2377;51.734;8.950;2024-01-06T13:10:08;97098.66;;;5.04;100.00
27712;BME280;2377;51.734;8.950;2024-01-06T13:12:37;97103.72;;;5.04;100.00
27712;BME280;2377;51.734;8.950;2024-01-06T13:15:06;97107.22;;;5.03;100.00